sensor_id;sensor_type;location;lat;lon;timestamp;pressure;altitude;pressure_sealevel;temperature;humidity
29121;BME280;16191;49.548;8.658;2023-04-08T00:02:11;100761.06;;;7.89;100.00
29121;BME280;16191;49.548;8.658;2023-04-08T00:04:38;100769.66;;;7.93;100.00
29121;BME280;16191;49.548;8.658;2023-04-08T00:07:05;100761.88;;;7.93;100.00
29121;BME280;16191;49.548;8.658;2023-04-08T00:09:32;100767.06;;;7.93;100.00
29121;BME280;16191;49.548;8.658;2023-04-08T00:11:59;100760.16;;;7.91;100.00
29121;BME280;16191;49.548;8.658;2023-04-08T00:14:26;100771.44;;;7.90;100.00
29121;BME280;16191;49.548;8.658;2023-04-08T00:16:53;100775.72;;;7.93;100.00
29121;BME280;16191;49.548;8.658;2023-04-08T00:19:20;100773.13;;;7.93;100.00
29121;BME280;16191;49.548;8.658;2023-04-08T00:21:47;100772.22;;;7.94;100.00
29121;BME280;16191;49.548;8.658;2023-04-08T00:24:14;100769.72;;;7.89;100.00
29121;BME280;16191;49.548;8.658;2023-04-08T00:26:40;100780.97;;;7.90;100.00
29121;BME280;16191;49.548;8.658;2023-04-08T00:29:07;100773.19;;;7.90;100.00
29121;BME280;16191;49.548;8.658;2023-04-08T00:31:33;100770.41;;;7.98;100.00
29121;BME280;16191;49.548;8.658;2023-04-08T00:34:00;100778.38;;;7.90;100.00
29121;BME280;16191;49.548;8.658;2023-04-08T00:36:27;100779.22;;;7.90;100.00
29121;BME280;16191;49.548;8.658;2023-04-08T00:38:53;100776.69;;;7.87;100.00
29121;BME280;16191;49.548;8.658;2023-04-08T00:41:20;100777.44;;;7.93;100.00
29121;BME280;16191;49.548;8.658;2023-04-08T00:43:48;100775.78;;;7.90;100.00
29121;BME280;16191;49.548;8.658;2023-04-08T00:46:14;100774.09;;;7.87;100.00
29121;BME280;16191;49.548;8.658;2023-04-08T00:48:42;100777.53;;;7.88;100.00
29121;BME280;16191;49.548;8.658;2023-04-08T00:51:08;100777.63;;;7.83;100.00
29121;BME280;16191;49.548;8.658;2023-04-08T00:53:35;100774.88;;;7.91;100.00
29121;BME280;16191;49.548;8.658;2023-04-08T00:56:02;100779.25;;;7.89;100.00
29121;BME280;16191;49.548;8.658;2023-04-08T00:58:29;100774.03;;;7.90;100.00
29121;BME280;16191;49.548;8.658;2023-04-08T01:01:08;100780.13;;;7.89;100.00
29121;BME280;16191;49.548;8.658;2023-04-08T01:06:22;100781.00;;;7.88;100.00
29121;BME280;16191;49.548;8.658;2023-04-08T01:08:55;100775.84;;;7.87;100.00
29121;BME280;16191;49.548;8.658;2023-04-08T01:11:26;100781.91;;;7.86;100.00
29121;BME280;16191;49.548;8.658;2023-04-08T01:13:55;100781.03;;;7.87;100.00
29121;BME280;16191;49.548;8.658;2023-04-08T01:16:23;100779.31;;;7.86;100.00
29121;BME280;16191;49.548;8.658;2023-04-08T01:18:52;100773.28;;;7.84;100.00
29121;BME280;16191;49.548;8.658;2023-04-08T01:21:21;100779.28;;;7.87;100.00
29121;BME280;16191;49.548;8.658;2023-04-08T01:24:05;100781.88;;;7.87;100.00
29121;BME280;16191;49.548;8.658;2023-04-08T01:26:32;100773.19;;;7.88;100.00
29121;BME280;16191;49.548;8.658;2023-04-08T01:29:01;100777.53;;;7.88;100.00
29121;BME280;16191;49.548;8.658;2023-04-08T01:31:28;100785.34;;;7.88;100.00
29121;BME280;16191;49.548;8.658;2023-04-08T01:33:58;100776.72;;;7.86;100.00
29121;BME280;16191;49.548;8.658;2023-04-08T01:36:27;100771.56;;;7.84;100.00
29121;BME280;16191;49.548;8.658;2023-04-08T01:38:55;100782.72;;;7.89;100.00
29121;BME280;16191;49.548;8.658;2023-04-08T01:41:21;100778.41;;;7.88;100.00
29121;BME280;16191;49.548;8.658;2023-04-08T01:43:50;100771.50;;;7.87;100.00
29121;BME280;16191;49.548;8.658;2023-04-08T01:46:19;100777.53;;;7.88;100.00
29121;BME280;16191;49.548;8.658;2023-04-08T01:48:47;100774.19;;;7.83;100.00
29121;BME280;16191;49.548;8.658;2023-04-08T01:51:15;100771.53;;;7.86;100.00
29121;BME280;16191;49.548;8.658;2023-04-08T01:53:42;100768.91;;;7.87;100.00
29121;BME280;16191;49.548;8.658;2023-04-08T01:56:11;100768.06;;;7.85;100.00
29121;BME280;16191;49.548;8.658;2023-04-08T01:58:42;100773.19;;;7.88;100.00
29121;BME280;16191;49.548;8.658;2023-04-08T02:01:34;100778.44;;;7.87;100.00
29121;BME280;16191;49.548;8.658;2023-04-08T02:04:21;100777.69;;;7.80;100.00
29121;BME280;16191;49.548;8.658;2023-04-08T02:07:07;100771.59;;;7.83;100.00
29121;BME280;16191;49.548;8.658;2023-04-08T02:09:55;100776.66;;;7.89;100.00
29121;BME280;16191;49.548;8.658;2023-04-08T02:12:43;100779.31;;;7.86;100.00
29121;BME280;16191;49.548;8.658;2023-04-08T02:15:33;100781.97;;;7.83;100.00
29121;BME280;16191;49.548;8.658;2023-04-08T02:18:07;100784.63;;;7.80;100.00
29121;BME280;16191;49.548;8.658;2023-04-08T02:20:42;100778.47;;;7.85;100.00
29121;BME280;16191;49.548;8.658;2023-04-08T02:23:20;100783.69;;;7.84;100.00
29121;BME280;16191;49.548;8.658;2023-04-08T02:25:48;100788.03;;;7.83;100.00
29121;BME280;16191;49.548;8.658;2023-04-08T02:28:17;100786.34;;;7.81;100.00
29121;BME280;16191;49.548;8.658;2023-04-08T02:30:50;100781.97;;;7.83;100.00
29121;BME280;16191;49.548;8.658;2023-04-08T02:33:21;100786.34;;;7.81;100.00
29121;BME280;16191;49.548;8.658;2023-04-08T02:35:51;100785.63;;;7.76;100.00
29121;BME280;16191;49.548;8.658;2023-04-08T02:38:22;100789.84;;;7.80;100.00
29121;BME280;16191;49.548;8.658;2023-04-08T02:40:50;100787.28;;;7.78;100.00
29121;BME280;16191;49.548;8.658;2023-04-08T02:43:17;100789.13;;;7.73;100.00
29121;BME280;16191;49.548;8.658;2023-04-08T02:45:44;100783.97;;;7.72;100.00
29121;BME280;16191;49.548;8.658;2023-04-08T02:48:11;100783.91;;;7.75;100.00
29121;BME280;16191;49.548;8.658;2023-04-08T02:50:38;100784.78;;;7.74;100.00
29121;BME280;16191;49.548;8.658;2023-04-08T02:53:07;100777.88;;;7.73;100.00
29121;BME280;16191;49.548;8.658;2023-04-08T02:55:34;100785.66;;;7.73;100.00
29121;BME280;16191;49.548;8.658;2023-04-08T02:58:01;100777.09;;;7.68;100.00
29121;BME280;16191;49.548;8.658;2023-04-08T03:00:27;100783.19;;;7.67;100.00
29121;BME280;16191;49.548;8.658;2023-04-08T03:02:54;100782.22;;;7.72;100.00
29121;BME280;16191;49.548;8.658;2023-04-08T03:05:20;100779.63;;;7.72;100.00
29121;BME280;16191;49.548;8.658;2023-04-08T03:07:47;100779.63;;;7.72;100.00
29121;BME280;16191;49.548;8.658;2023-04-08T03:10:14;100787.50;;;7.68;100.00
29121;BME280;16191;49.548;8.658;2023-04-08T03:12:40;100784.06;;;7.66;100.00
29121;BME280;16191;49.548;8.658;2023-04-08T03:15:07;100779.69;;;7.69;100.00
29121;BME280;16191;49.548;8.658;2023-04-08T03:17:34;100784.00;;;7.69;100.00
29121;BME280;16191;49.548;8.658;2023-04-08T03:20:01;100782.28;;;7.69;100.00
29121;BME280;16191;49.548;8.658;2023-04-08T03:22:30;100785.78;;;7.67;100.00
29121;BME280;16191;49.548;8.658;2023-04-08T03:24:57;100781.47;;;7.66;100.00
29121;BME280;16191;49.548;8.658;2023-04-08T03:27:24;100782.31;;;7.68;100.00
29121;BME280;16191;49.548;8.658;2023-04-08T03:29:50;100787.53;;;7.66;100.00
29121;BME280;16191;49.548;8.658;2023-04-08T03:32:18;100788.50;;;7.61;100.00
29121;BME280;16191;49.548;8.658;2023-04-08T03:34:45;100783.25;;;7.64;100.00
29121;BME280;16191;49.548;8.658;2023-04-08T03:37:11;100789.28;;;7.66;100.00
29121;BME280;16191;49.548;8.658;2023-04-08T03:39:38;100788.41;;;7.65;100.00
29121;BME280;16191;49.548;8.658;2023-04-08T03:42:04;100791.03;;;7.64;100.00
29121;BME280;16191;49.548;8.658;2023-04-08T03:44:31;100789.31;;;7.63;100.00
29121;BME280;16191;49.548;8.658;2023-04-08T03:46:58;100788.44;;;7.64;100.00
29121;BME280;16191;49.548;8.658;2023-04-08T03:49:24;100791.91;;;7.64;100.00
29121;BME280;16191;49.548;8.658;2023-04-08T03:51:51;100797.16;;;7.60;100.00
29121;BME280;16191;49.548;8.658;2023-04-08T03:54:18;100796.38;;;7.57;100.00
29121;BME280;16191;49.548;8.658;2023-04-08T03:56:44;100792.94;;;7.55;100.00
29121;BME280;16191;49.548;8.658;2023-04-08T03:59:11;100798.13;;;7.57;100.00
29121;BME280;16191;49.548;8.658;2023-04-08T04:01:37;100793.63;;;7.64;100.00
29121;BME280;16191;49.548;8.658;2023-04-08T04:04:07;100792.00;;;7.58;100.00
29121;BME280;16191;49.548;8.658;2023-04-08T04:06:34;100798.06;;;7.58;100.00
29121;BME280;16191;49.548;8.658;2023-04-08T04:09:00;100803.31;;;7.57;100.00
29121;BME280;16191;49.548;8.658;2023-04-08T04:11:27;100802.47;;;7.56;100.00
29121;BME280;16191;49.548;8.658;2023-04-08T04:13:54;100806.78;;;7.56;100.00
29121;BME280;16191;49.548;8.658;2023-04-08T04:16:20;100804.97;;;7.60;100.00
29121;BME280;16191;49.548;8.658;2023-04-08T04:18:47;100808.44;;;7.58;100.00
29121;BME280;16191;49.548;8.658;2023-04-08T04:21:14;100802.47;;;7.56;100.00
29121;BME280;16191;49.548;8.658;2023-04-08T04:23:41;100809.28;;;7.61;100.00
29121;BME280;16191;49.548;8.658;2023-04-08T04:26:08;100805.00;;;7.58;100.00
29121;BME280;16191;49.548;8.658;2023-04-08T04:28:36;100806.78;;;7.56;100.00
29121;BME280;16191;49.548;8.658;2023-04-08T04:31:03;100812.78;;;7.58;100.00
29121;BME280;16191;49.548;8.658;2023-04-08T04:33:30;100817.16;;;7.57;100.00
29121;BME280;16191;49.548;8.658;2023-04-08T04:35:57;100818.84;;;7.58;100.00
29121;BME280;16191;49.548;8.658;2023-04-08T04:38:23;100825.75;;;7.60;100.00
29121;BME280;16191;49.548;8.658;2023-04-08T04:40:50;100825.00;;;7.54;100.00
29121;BME280;16191;49.548;8.658;2023-04-08T04:43:16;100830.19;;;7.54;100.00
29121;BME280;16191;49.548;8.658;2023-04-08T04:45:43;100818.91;;;7.55;100.00
29121;BME280;16191;49.548;8.658;2023-04-08T04:48:10;100831.88;;;7.57;100.00
29121;BME280;16191;49.548;8.658;2023-04-08T04:50:37;100824.09;;;7.57;100.00
29121;BME280;16191;49.548;8.658;2023-04-08T04:53:03;100831.91;;;7.55;100.00
29121;BME280;16191;49.548;8.658;2023-04-08T04:55:30;100824.94;;;7.57;100.00
29121;BME280;16191;49.548;8.658;2023-04-08T04:57:56;100829.16;;;7.62;100.00
29121;BME280;16191;49.548;8.658;2023-04-08T05:00:23;100827.47;;;7.61;100.00
29121;BME280;16191;49.548;8.658;2023-04-08T05:02:50;100829.16;;;7.62;100.00
29121;BME280;16191;49.548;8.658;2023-04-08T05:05:17;100834.38;;;7.60;100.00
29121;BME280;16191;49.548;8.658;2023-04-08T05:07:43;100837.94;;;7.57;100.00
29121;BME280;16191;49.548;8.658;2023-04-08T05:10:10;100841.47;;;7.53;100.00
29121;BME280;16191;49.548;8.658;2023-04-08T05:12:37;100836.13;;;7.60;100.00
29121;BME280;16191;49.548;8.658;2023-04-08T05:15:04;100837.78;;;7.64;100.00
29121;BME280;16191;49.548;8.658;2023-04-08T05:17:32;100839.44;;;7.68;100.00
29121;BME280;16191;49.548;8.658;2023-04-08T05:19:58;100841.09;;;7.72;100.00
29121;BME280;16191;49.548;8.658;2023-04-08T05:22:25;100849.94;;;7.62;100.00
29121;BME280;16191;49.548;8.658;2023-04-08T05:24:51;100850.91;;;7.57;100.00
29121;BME280;16191;49.548;8.658;2023-04-08T05:27:18;100849.09;;;7.61;100.00
29121;BME280;16191;49.548;8.658;2023-04-08T05:29:44;100842.94;;;7.67;100.00
29121;BME280;16191;49.548;8.658;2023-04-08T05:32:11;100836.78;;;7.71;100.00
29121;BME280;16191;49.548;8.658;2023-04-08T05:34:38;100844.75;;;7.62;100.00
29121;BME280;16191;49.548;8.658;2023-04-08T05:37:04;100851.03;;;7.51;100.00
29121;BME280;16191;49.548;8.658;2023-04-08T05:39:31;100856.19;;;7.53;100.00
29121;BME280;16191;49.548;8.658;2023-04-08T05:41:57;100855.31;;;7.54;100.00
29121;BME280;16191;49.548;8.658;2023-04-08T05:44:24;100852.75;;;7.51;100.00
29121;BME280;16191;49.548;8.658;2023-04-08T05:46:51;100856.19;;;7.53;100.00
29121;BME280;16191;49.548;8.658;2023-04-08T05:49:18;100859.47;;;7.61;100.00
29121;BME280;16191;49.548;8.658;2023-04-08T05:51:44;100857.94;;;7.52;100.00
29121;BME280;16191;49.548;8.658;2023-04-08T05:54:11;100858.81;;;7.51;100.00
29121;BME280;16191;49.548;8.658;2023-04-08T05:56:37;100864.94;;;7.47;100.00
29121;BME280;16191;49.548;8.658;2023-04-08T05:59:04;100868.50;;;7.42;100.00
29121;BME280;16191;49.548;8.658;2023-04-08T06:01:30;100866.94;;;7.33;100.00
29121;BME280;16191;49.548;8.658;2023-04-08T06:03:57;100870.41;;;7.32;100.00
29121;BME280;16191;49.548;8.658;2023-04-08T06:06:24;100875.47;;;7.38;100.00
29121;BME280;16191;49.548;8.658;2023-04-08T06:08:51;100872.72;;;7.47;100.00
29121;BME280;16191;49.548;8.658;2023-04-08T06:11:18;100878.44;;;7.66;100.00
29121;BME280;16191;49.548;8.658;2023-04-08T06:13:45;100869.72;;;7.69;100.00
29121;BME280;16191;49.548;8.658;2023-04-08T06:16:12;100874.03;;;7.70;100.00
29121;BME280;16191;49.548;8.658;2023-04-08T06:18:39;100876.38;;;7.83;100.00
29121;BME280;16191;49.548;8.658;2023-04-08T06:21:06;100885.63;;;7.98;100.00
29121;BME280;16191;49.548;8.658;2023-04-08T06:23:32;100879.56;;;7.98;100.00
29121;BME280;16191;49.548;8.658;2023-04-08T06:25:59;100883.84;;;8.00;100.00
29121;BME280;16191;49.548;8.658;2023-04-08T06:28:28;100886.25;;;8.09;100.00
29121;BME280;16191;49.548;8.658;2023-04-08T06:30:54;100895.00;;;8.05;100.00
29121;BME280;16191;49.548;8.658;2023-04-08T06:33:21;100896.50;;;8.17;100.00
29121;BME280;16191;49.548;8.658;2023-04-08T06:35:47;100895.91;;;8.03;100.00
29121;BME280;16191;49.548;8.658;2023-04-08T06:38:14;100908.91;;;8.03;100.00
29121;BME280;16191;49.548;8.658;2023-04-08T06:40:40;100900.31;;;8.01;100.00
29121;BME280;16191;49.548;8.658;2023-04-08T06:43:07;100905.38;;;8.05;100.00
29121;BME280;16191;49.548;8.658;2023-04-08T06:45:37;100901.81;;;8.11;100.00
29121;BME280;16191;49.548;8.658;2023-04-08T06:48:04;100900.25;;;8.02;100.00
29121;BME280;16191;49.548;8.658;2023-04-08T06:50:32;100904.53;;;8.05;100.00
29121;BME280;16191;49.548;8.658;2023-04-08T06:52:58;100908.81;;;8.07;100.00
29121;BME280;16191;49.548;8.658;2023-04-08T06:55:25;100906.16;;;8.10;100.00
29121;BME280;16191;49.548;8.658;2023-04-08T06:57:52;100913.06;;;8.11;100.00
29121;BME280;16191;49.548;8.658;2023-04-08T07:00:18;100907.88;;;8.11;100.00
29121;BME280;16191;49.548;8.658;2023-04-08T07:02:45;100914.03;;;8.06;100.00
29121;BME280;16191;49.548;8.658;2023-04-08T07:05:12;100917.34;;;8.14;100.00
29121;BME280;16191;49.548;8.658;2023-04-08T07:07:39;100915.56;;;8.17;100.00
29121;BME280;16191;49.548;8.658;2023-04-08T07:10:06;100915.38;;;8.25;100.00
29121;BME280;16191;49.548;8.658;2023-04-08T07:12:36;100927.78;;;8.12;100.00
29121;BME280;16191;49.548;8.658;2023-04-08T07:15:03;100922.59;;;8.11;100.00
29121;BME280;16191;49.548;8.658;2023-04-08T07:17:29;100924.38;;;8.09;100.00
29121;BME280;16191;49.548;8.658;2023-04-08T07:19:56;100921.13;;;7.99;100.00
29121;BME280;16191;49.548;8.658;2023-04-08T07:22:23;100923.75;;;7.98;100.00
29121;BME280;16191;49.548;8.658;2023-04-08T07:24:49;100924.56;;;8.00;100.00
29121;BME280;16191;49.548;8.658;2023-04-08T07:27:16;100933.16;;;8.02;100.00
29121;BME280;16191;49.548;8.658;2023-04-08T07:29:42;100934.84;;;8.04;100.00
29121;BME280;16191;49.548;8.658;2023-04-08T07:32:09;100934.69;;;8.13;100.00
29121;BME280;16191;49.548;8.658;2023-04-08T07:34:36;100934.56;;;8.19;100.00
29121;BME280;16191;49.548;8.658;2023-04-08T07:37:03;100942.44;;;8.16;100.00
29121;BME280;16191;49.548;8.658;2023-04-08T07:39:29;100934.41;;;8.27;100.00
29121;BME280;16191;49.548;8.658;2023-04-08T07:41:56;100944.63;;;8.38;100.00
29121;BME280;16191;49.548;8.658;2023-04-08T07:44:23;100946.75;;;8.61;100.00
29121;BME280;16191;49.548;8.658;2023-04-08T07:46:49;100949.66;;;8.85;100.00
29121;BME280;16191;49.548;8.658;2023-04-08T07:49:17;100941.06;;;9.19;100.00
29121;BME280;16191;49.548;8.658;2023-04-08T07:51:43;100945.81;;;9.37;100.00
29121;BME280;16191;49.548;8.658;2023-04-08T07:54:10;100944.53;;;9.53;100.00
29121;BME280;16191;49.548;8.658;2023-04-08T07:56:38;100946.09;;;9.60;100.00
29121;BME280;16191;49.548;8.658;2023-04-08T07:59:06;100944.81;;;9.43;100.00
29121;BME280;16191;49.548;8.658;2023-04-08T08:01:32;100943.75;;;9.51;100.00
29121;BME280;16191;49.548;8.658;2023-04-08T08:04:02;100950.75;;;9.49;100.00
29121;BME280;16191;49.548;8.658;2023-04-08T08:06:29;100941.78;;;9.59;100.00
29121;BME280;16191;49.548;8.658;2023-04-08T08:08:59;100950.78;;;9.80;100.00
29121;BME280;16191;49.548;8.658;2023-04-08T08:11:26;100951.72;;;9.78;100.00
29121;BME280;16191;49.548;8.658;2023-04-08T08:13:53;100942.34;;;9.72;100.00
29121;BME280;16191;49.548;8.658;2023-04-08T08:16:20;100949.78;;;9.86;100.00
29121;BME280;16191;49.548;8.658;2023-04-08T08:18:46;100951.28;;;9.94;100.00
29121;BME280;16191;49.548;8.658;2023-04-08T08:21:13;100951.50;;;9.87;100.00
29121;BME280;16191;49.548;8.658;2023-04-08T08:23:40;100954.38;;;9.76;100.00
29121;BME280;16191;49.548;8.658;2023-04-08T08:26:08;100955.94;;;9.83;100.00
29121;BME280;16191;49.548;8.658;2023-04-08T08:28:38;100956.41;;;9.97;100.00
29121;BME280;16191;49.548;8.658;2023-04-08T08:31:05;100958.88;;;10.02;100.00
29121;BME280;16191;49.548;8.658;2023-04-08T08:33:32;100965.91;;;10.62;99.06
29121;BME280;16191;49.548;8.658;2023-04-08T08:35:59;100962.44;;;10.91;93.94
29121;BME280;16191;49.548;8.658;2023-04-08T08:38:26;100963.84;;;10.73;85.96
29121;BME280;16191;49.548;8.658;2023-04-08T08:40:57;100962.03;;;10.75;83.30
29121;BME280;16191;49.548;8.658;2023-04-08T08:43:24;100963.06;;;10.99;84.54
29121;BME280;16191;49.548;8.658;2023-04-08T08:45:51;100968.59;;;10.88;85.01
29121;BME280;16191;49.548;8.658;2023-04-08T08:48:18;100971.84;;;10.96;83.60
29121;BME280;16191;49.548;8.658;2023-04-08T08:50:45;100970.13;;;11.23;81.47
29121;BME280;16191;49.548;8.658;2023-04-08T08:53:12;100973.56;;;11.50;75.42
29121;BME280;16191;49.548;8.658;2023-04-08T08:55:38;100971.78;;;11.79;76.65
29121;BME280;16191;49.548;8.658;2023-04-08T08:58:26;100968.06;;;11.86;77.88
29121;BME280;16191;49.548;8.658;2023-04-08T09:00:54;100973.34;;;11.84;78.36
29121;BME280;16191;49.548;8.658;2023-04-08T09:03:23;100970.56;;;11.62;73.15
29121;BME280;16191;49.548;8.658;2023-04-08T09:08:41;100975.66;;;11.67;72.58
29121;BME280;16191;49.548;8.658;2023-04-08T09:11:19;100974.59;;;11.46;73.18
29121;BME280;16191;49.548;8.658;2023-04-08T09:13:47;100979.06;;;11.69;75.13
29121;BME280;16191;49.548;8.658;2023-04-08T09:16:16;100973.00;;;12.18;73.26
29121;BME280;16191;49.548;8.658;2023-04-08T09:18:46;100976.69;;;12.36;69.44
29121;BME280;16191;49.548;8.658;2023-04-08T09:21:15;100970.63;;;12.12;68.47
29121;BME280;16191;49.548;8.658;2023-04-08T09:23:43;100977.81;;;12.06;69.40
29121;BME280;16191;49.548;8.658;2023-04-08T09:26:12;100970.00;;;12.29;68.94
29121;BME280;16191;49.548;8.658;2023-04-08T09:28:40;100973.00;;;12.42;67.24
29121;BME280;16191;49.548;8.658;2023-04-08T09:31:30;100972.56;;;12.54;65.92
29121;BME280;16191;49.548;8.658;2023-04-08T09:33:59;100972.63;;;12.52;67.74
29121;BME280;16191;49.548;8.658;2023-04-08T09:36:25;100965.94;;;12.90;67.33
29121;BME280;16191;49.548;8.658;2023-04-08T09:38:53;100978.72;;;12.53;63.91
29121;BME280;16191;49.548;8.658;2023-04-08T09:41:21;100976.28;;;12.48;65.50
29121;BME280;16191;49.548;8.658;2023-04-08T09:43:54;100972.47;;;12.33;65.75
29121;BME280;16191;49.548;8.658;2023-04-08T09:46:44;100974.09;;;12.36;67.41
29121;BME280;16191;49.548;8.658;2023-04-08T09:49:26;100975.44;;;12.23;65.72
29121;BME280;16191;49.548;8.658;2023-04-08T09:52:29;100983.38;;;12.45;66.09
29121;BME280;16191;49.548;8.658;2023-04-08T09:55:02;100973.66;;;12.72;65.06
29121;BME280;16191;49.548;8.658;2023-04-08T09:57:51;100976.84;;;12.78;64.69
29121;BME280;16191;49.548;8.658;2023-04-08T10:00:31;100976.53;;;12.87;63.78
29121;BME280;16191;49.548;8.658;2023-04-08T10:05:42;100973.13;;;12.62;64.95
29121;BME280;16191;49.548;8.658;2023-04-08T10:08:09;100978.88;;;12.48;66.14
29121;BME280;16191;49.548;8.658;2023-04-08T10:10:38;100978.88;;;12.72;66.08
29121;BME280;16191;49.548;8.658;2023-04-08T10:13:06;100976.53;;;12.41;65.42
29121;BME280;16191;49.548;8.658;2023-04-08T10:15:34;100978.69;;;12.06;67.34
29121;BME280;16191;49.548;8.658;2023-04-08T10:23:09;100989.78;;;11.88;65.69
29121;BME280;16191;49.548;8.658;2023-04-08T10:25:46;100988.06;;;12.12;65.77
29121;BME280;16191;49.548;8.658;2023-04-08T10:30:41;101003.91;;;11.82;66.26
29121;BME280;16191;49.548;8.658;2023-04-08T10:33:14;100990.34;;;11.96;66.16
29121;BME280;16191;49.548;8.658;2023-04-08T10:35:43;100986.69;;;12.01;68.07
29121;BME280;16191;49.548;8.658;2023-04-08T10:38:16;100992.69;;;12.28;68.02
29121;BME280;16191;49.548;8.658;2023-04-08T10:40:43;100983.91;;;12.54;66.53
29121;BME280;16191;49.548;8.658;2023-04-08T10:43:12;100993.28;;;12.60;65.15
29121;BME280;16191;49.548;8.658;2023-04-08T10:45:40;100995.63;;;12.19;60.54
29121;BME280;16191;49.548;8.658;2023-04-08T10:48:20;101000.91;;;12.43;56.85
29121;BME280;16191;49.548;8.658;2023-04-08T10:50:53;100995.84;;;12.61;55.20
29121;BME280;16191;49.548;8.658;2023-04-08T10:53:40;100994.06;;;12.62;55.56
29121;BME280;16191;49.548;8.658;2023-04-08T10:56:12;100996.75;;;12.60;53.56
29121;BME280;16191;49.548;8.658;2023-04-08T10:58:48;101000.53;;;12.53;52.45
29121;BME280;16191;49.548;8.658;2023-04-08T11:01:15;100991.91;;;12.26;52.23
29121;BME280;16191;49.548;8.658;2023-04-08T11:03:42;100986.31;;;12.35;51.18
29121;BME280;16191;49.548;8.658;2023-04-08T11:06:09;100989.41;;;12.47;52.18
29121;BME280;16191;49.548;8.658;2023-04-08T11:08:36;101001.22;;;12.57;52.96
29121;BME280;16191;49.548;8.658;2023-04-08T11:11:05;100990.16;;;12.74;52.40
29121;BME280;16191;49.548;8.658;2023-04-08T11:13:41;100984.88;;;12.75;51.17
29121;BME280;16191;49.548;8.658;2023-04-08T11:16:19;100986.38;;;13.02;51.70
29121;BME280;16191;49.548;8.658;2023-04-08T11:18:49;100986.75;;;13.38;51.08
29121;BME280;16191;49.548;8.658;2023-04-08T11:21:16;100982.56;;;13.11;51.13
29121;BME280;16191;49.548;8.658;2023-04-08T11:23:43;100986.69;;;13.18;51.45
29121;BME280;16191;49.548;8.658;2023-04-08T11:26:10;100981.72;;;13.54;50.73
29121;BME280;16191;49.548;8.658;2023-04-08T11:28:37;100969.28;;;13.59;50.68
29121;BME280;16191;49.548;8.658;2023-04-08T11:31:04;100980.38;;;13.44;50.72
29121;BME280;16191;49.548;8.658;2023-04-08T11:33:31;100983.50;;;13.94;49.80
29121;BME280;16191;49.548;8.658;2023-04-08T11:36:00;100986.28;;;13.49;49.60
29121;BME280;16191;49.548;8.658;2023-04-08T11:38:27;100977.88;;;13.63;50.32
29121;BME280;16191;49.548;8.658;2023-04-08T11:40:56;100980.56;;;13.82;50.20
29121;BME280;16191;49.548;8.658;2023-04-08T11:43:24;100980.53;;;13.41;51.94
29121;BME280;16191;49.548;8.658;2023-04-08T11:45:51;100987.22;;;13.48;53.25
29121;BME280;16191;49.548;8.658;2023-04-08T11:48:18;100985.22;;;13.33;53.44
29121;BME280;16191;49.548;8.658;2023-04-08T11:50:45;100979.41;;;13.25;54.81
29121;BME280;16191;49.548;8.658;2023-04-08T11:53:24;100974.84;;;13.52;53.91
29121;BME280;16191;49.548;8.658;2023-04-08T11:55:51;100974.91;;;13.28;53.76
29121;BME280;16191;49.548;8.658;2023-04-08T11:58:17;100971.22;;;13.54;52.67
29121;BME280;16191;49.548;8.658;2023-04-08T12:00:44;100964.84;;;13.82;53.00
29121;BME280;16191;49.548;8.658;2023-04-08T12:03:11;100963.00;;;14.43;51.29
29121;BME280;16191;49.548;8.658;2023-04-08T12:05:39;100972.69;;;14.02;51.10
29121;BME280;16191;49.548;8.658;2023-04-08T12:08:05;100962.41;;;13.97;52.63
29121;BME280;16191;49.548;8.658;2023-04-08T12:10:34;100965.00;;;14.57;50.73
29121;BME280;16191;49.548;8.658;2023-04-08T12:13:01;100974.34;;;13.64;51.24
29121;BME280;16191;49.548;8.658;2023-04-08T12:15:27;100972.00;;;13.36;51.44
29121;BME280;16191;49.548;8.658;2023-04-08T12:17:54;100974.75;;;13.33;51.83
29121;BME280;16191;49.548;8.658;2023-04-08T12:20:21;100979.69;;;13.41;50.93
29121;BME280;16191;49.548;8.658;2023-04-08T12:22:47;100981.50;;;13.17;51.92
29121;BME280;16191;49.548;8.658;2023-04-08T12:25:14;100968.25;;;12.98;52.12
29121;BME280;16191;49.548;8.658;2023-04-08T12:27:40;100960.09;;;13.69;51.41
29121;BME280;16191;49.548;8.658;2023-04-08T12:30:07;100957.81;;;13.82;51.69
29121;BME280;16191;49.548;8.658;2023-04-08T12:32:34;100959.91;;;13.94;52.13
29121;BME280;16191;49.548;8.658;2023-04-08T12:35:01;100965.59;;;14.24;51.67
29121;BME280;16191;49.548;8.658;2023-04-08T12:37:27;100966.19;;;13.70;52.18
29121;BME280;16191;49.548;8.658;2023-04-08T12:39:54;100961.59;;;13.75;52.11
29121;BME280;16191;49.548;8.658;2023-04-08T12:42:20;100958.19;;;13.93;51.39
29121;BME280;16191;49.548;8.658;2023-04-08T12:44:47;100960.97;;;14.68;51.63
29121;BME280;16191;49.548;8.658;2023-04-08T12:47:13;100959.13;;;14.89;49.48
29121;BME280;16191;49.548;8.658;2023-04-08T12:49:41;100953.03;;;15.06;50.51
29121;BME280;16191;49.548;8.658;2023-04-08T12:52:14;100945.53;;;16.36;47.64
29121;BME280;16191;49.548;8.658;2023-04-08T12:54:41;100937.38;;;16.57;47.20
29121;BME280;16191;49.548;8.658;2023-04-08T12:57:08;100933.94;;;16.72;45.55
29121;BME280;16191;49.548;8.658;2023-04-08T12:59:34;100941.13;;;15.87;47.86
29121;BME280;16191;49.548;8.658;2023-04-08T13:02:01;100941.97;;;16.53;47.08
29121;BME280;16191;49.548;8.658;2023-04-08T13:04:27;100937.75;;;16.18;47.36
29121;BME280;16191;49.548;8.658;2023-04-08T13:06:54;100935.75;;;16.87;46.96
29121;BME280;16191;49.548;8.658;2023-04-08T13:09:22;100940.88;;;16.57;47.41
29121;BME280;16191;49.548;8.658;2023-04-08T13:11:48;100917.94;;;17.36;46.05
29121;BME280;16191;49.548;8.658;2023-04-08T13:14:15;100927.81;;;18.21;45.56